createdAt,value
2023-03-28T00:02:14.991Z,0.50
2023-03-28T00:07:43.225Z,0.50
2023-03-28T00:13:14.186Z,0.40
2023-03-28T00:18:42.813Z,0.30
2023-03-28T00:24:13.956Z,0.30
2023-03-28T00:29:42.507Z,0.30
2023-03-28T00:35:10.752Z,0.30
2023-03-28T00:40:38.984Z,0.30
2023-03-28T00:46:36.396Z,0.40
2023-03-28T00:52:05.243Z,0.40
2023-03-28T00:57:33.780Z,0.40
2023-03-28T01:03:02.725Z,0.40
2023-03-28T01:08:34.799Z,0.40
2023-03-28T01:14:04.574Z,0.40
2023-03-28T01:20:08.832Z,0.30
2023-03-28T01:26:23.126Z,0.30
2023-03-28T01:32:34.708Z,0.20
2023-03-28T01:38:23.891Z,0.20
2023-03-28T01:44:37.474Z,0.10
2023-03-28T01:50:39.825Z,0.00
2023-03-28T01:56:18.787Z,0.00
2023-03-28T02:02:03.283Z,-0.10
2023-03-28T02:07:33.935Z,-0.10
2023-03-28T02:13:17.657Z,-0.10
2023-03-28T02:19:06.414Z,-0.10
2023-03-28T02:24:34.567Z,-0.20
2023-03-28T02:30:27.367Z,-0.20
2023-03-28T02:36:18.636Z,-0.20
2023-03-28T02:42:35.353Z,-0.20
2023-03-28T02:48:39.517Z,-0.30
2023-03-28T02:54:31.607Z,-0.30
2023-03-28T03:00:22.962Z,-0.30
2023-03-28T03:05:51.185Z,-0.40
2023-03-28T03:11:19.835Z,-0.40
2023-03-28T03:16:48.954Z,-0.50
2023-03-28T03:22:20.520Z,-0.50
2023-03-28T03:27:53.076Z,-0.50
2023-03-28T03:33:22.332Z,-0.50
2023-03-28T03:38:56.568Z,-0.50
2023-03-28T03:44:25.864Z,-0.50
2023-03-28T03:49:54.714Z,-0.50
2023-03-28T03:55:23.014Z,-0.50
2023-03-28T04:00:52.140Z,-0.40
2023-03-28T04:06:39.182Z,-0.40
2023-03-28T04:12:10.205Z,-0.40
2023-03-28T04:17:56.904Z,-0.40
2023-03-28T04:23:26.981Z,-0.50
2023-03-28T04:28:57.229Z,-0.50
2023-03-28T04:34:29.976Z,-0.60
2023-03-28T04:40:12.626Z,-0.60
2023-03-28T04:46:01.676Z,-0.70
2023-03-28T04:51:30.604Z,-0.80
2023-03-28T04:56:59.085Z,-0.80
2023-03-28T05:02:37.932Z,-0.90
2023-03-28T05:08:07.089Z,-0.90
2023-03-28T05:13:35.548Z,-0.90
2023-03-28T05:19:12.782Z,-1.00
2023-03-28T05:25:06.539Z,-1.00
2023-03-28T05:30:37.472Z,-1.00
2023-03-28T05:36:07.300Z,-1.00
2023-03-28T05:41:35.507Z,-1.00
2023-03-28T05:47:03.636Z,-0.90
2023-03-28T05:52:31.739Z,-0.90
2023-03-28T05:58:00.041Z,-0.80
2023-03-28T06:03:40.201Z,-0.70
2023-03-28T06:09:08.757Z,-0.60
2023-03-28T06:14:51.931Z,-0.50
2023-03-28T06:20:26.459Z,-0.40
2023-03-28T06:25:56.360Z,-0.30
2023-03-28T06:31:26.108Z,-0.20
2023-03-28T06:36:54.434Z,-0.10
2023-03-28T06:42:22.526Z,-0.10
2023-03-28T06:47:59.823Z,0.00
2023-03-28T06:53:47.663Z,0.10
2023-03-28T06:59:17.918Z,0.20
2023-03-28T07:04:51.074Z,0.30
2023-03-28T07:10:19.373Z,0.60
2023-03-28T07:15:47.496Z,0.90
2023-03-28T07:21:17.999Z,1.00
2023-03-28T07:26:46.238Z,0.90
2023-03-28T07:32:14.878Z,0.90
2023-03-28T07:37:47.510Z,1.10
2023-03-28T07:43:31.932Z,1.20
2023-03-28T07:49:00.950Z,1.10
2023-03-28T07:54:29.484Z,1.20
2023-03-28T07:59:57.971Z,1.50
2023-03-28T08:05:27.705Z,1.60
2023-03-28T08:10:55.915Z,1.70
2023-03-28T08:16:24.002Z,1.80
2023-03-28T08:21:53.582Z,2.10
2023-03-28T08:27:22.888Z,2.10
2023-03-28T08:32:55.279Z,2.20
2023-03-28T08:38:24.228Z,2.10
2023-03-28T08:44:11.045Z,2.20
2023-03-28T08:50:12.847Z,2.30
2023-03-28T08:55:43.298Z,2.90
2023-03-28T09:01:11.532Z,2.90
2023-03-28T09:06:41.864Z,2.90
2023-03-28T09:13:26.813Z,3.30
2023-03-28T09:19:48.335Z,3.50
2023-03-28T09:25:52.685Z,3.90
2023-03-28T09:31:49.747Z,4.10
2023-03-28T09:37:41.929Z,4.10
2023-03-28T09:43:54.097Z,4.20
2023-03-28T09:49:44.591Z,4.60
2023-03-28T09:55:23.283Z,4.70
2023-03-28T10:00:55.171Z,4.30
2023-03-28T10:06:48.210Z,4.30
2023-03-28T10:12:37.952Z,4.30
2023-03-28T10:18:07.171Z,4.40
2023-03-28T10:23:56.382Z,4.20
2023-03-28T10:29:24.721Z,4.50
2023-03-28T10:35:07.712Z,4.80
2023-03-28T10:40:59.151Z,4.90
2023-03-28T10:46:49.591Z,4.60
2023-03-28T10:52:48.241Z,4.80
2023-03-28T10:58:41.479Z,5.00
2023-03-28T11:04:44.648Z,5.00
2023-03-28T11:11:03.201Z,4.90
2023-03-28T11:16:55.370Z,4.90
2023-03-28T11:23:20.400Z,5.10
2023-03-28T11:29:44.424Z,5.10
2023-03-28T11:35:31.855Z,5.20
2023-03-28T11:41:14.067Z,5.30
2023-03-28T11:47:23.803Z,5.30
2023-03-28T11:53:16.892Z,5.90
2023-03-28T11:59:13.938Z,6.10
2023-03-28T12:07:10.409Z,6.70
2023-03-28T12:12:47.208Z,6.50
2023-03-28T12:18:41.372Z,6.50
2023-03-28T12:24:14.459Z,6.80
2023-03-28T12:30:00.403Z,7.00
2023-03-28T12:35:45.257Z,7.00
2023-03-28T12:41:21.342Z,6.80
2023-03-28T12:47:10.233Z,7.00
2023-03-28T12:52:43.911Z,6.80
2023-03-28T12:58:28.570Z,6.50
2023-03-28T13:04:37.387Z,6.50
2023-03-28T13:10:25.328Z,7.10
2023-03-28T13:16:27.310Z,7.10
2023-03-28T13:21:57.960Z,7.90
2023-03-28T13:27:33.864Z,8.50
2023-03-28T13:33:28.868Z,9.00
2023-03-28T13:39:25.349Z,9.60
2023-03-28T13:44:59.889Z,9.90
2023-03-28T13:50:31.064Z,10.40
2023-03-28T13:56:30.954Z,11.00
2023-03-28T14:02:02.268Z,11.80
2023-03-28T14:07:30.989Z,12.10
2023-03-28T14:13:23.013Z,12.40
2023-03-28T14:18:51.563Z,13.80
2023-03-28T14:24:25.231Z,13.70
2023-03-28T14:29:59.401Z,13.80
2023-03-28T14:35:33.614Z,14.30
2023-03-28T14:41:21.352Z,14.50
2023-03-28T14:46:49.869Z,14.10
2023-03-28T14:52:30.839Z,13.20
2023-03-28T14:58:00.614Z,12.60
2023-03-28T15:03:39.679Z,12.40
2023-03-28T15:09:27.638Z,12.80
2023-03-28T15:14:55.868Z,12.30
2023-03-28T15:20:35.217Z,11.30
2023-03-28T15:26:09.706Z,10.40
2023-03-28T15:31:41.049Z,9.50
2023-03-28T15:37:20.656Z,9.00
2023-03-28T15:42:51.158Z,8.60
2023-03-28T15:48:23.995Z,8.10
2023-03-28T15:53:52.223Z,7.80
2023-03-28T15:59:42.411Z,7.60
2023-03-28T16:05:10.702Z,7.50
2023-03-28T16:10:39.048Z,7.60
2023-03-28T16:16:29.088Z,8.20
2023-03-28T16:22:10.144Z,8.30
2023-03-28T16:27:39.064Z,8.00
2023-03-28T16:33:07.893Z,7.90
2023-03-28T16:38:36.236Z,7.80
2023-03-28T16:44:05.054Z,7.70
2023-03-28T16:49:32.956Z,7.50
2023-03-28T16:55:01.115Z,7.30
2023-03-28T17:00:29.490Z,7.10
2023-03-28T17:06:05.934Z,6.90
2023-03-28T17:11:34.825Z,6.70
2023-03-28T17:17:03.275Z,6.60
2023-03-28T17:22:31.528Z,6.40
2023-03-28T17:28:00.771Z,6.30
2023-03-28T17:33:31.282Z,6.20
2023-03-28T17:39:03.607Z,6.10
2023-03-28T17:44:32.809Z,5.90
2023-03-28T17:50:01.429Z,5.70
2023-03-28T17:55:33.402Z,5.60
2023-03-28T18:01:01.731Z,5.40
2023-03-28T18:06:29.869Z,5.30
2023-03-28T18:11:57.982Z,5.20
2023-03-28T18:17:26.252Z,5.10
2023-03-28T18:22:54.889Z,4.90
2023-03-28T18:28:26.572Z,4.80
2023-03-28T18:33:54.670Z,4.70
2023-03-28T18:39:23.799Z,4.50
2023-03-28T18:44:52.762Z,4.40
2023-03-28T18:50:21.276Z,4.20
2023-03-28T18:55:49.689Z,4.10
2023-03-28T19:01:18.864Z,3.90
2023-03-28T19:06:47.485Z,3.80
2023-03-28T19:12:16.461Z,3.70
2023-03-28T19:17:44.484Z,3.50
2023-03-28T19:23:12.745Z,3.30
2023-03-28T19:28:41.673Z,3.20
2023-03-28T19:34:17.057Z,3.10
2023-03-28T19:39:45.330Z,2.90
2023-03-28T19:45:13.929Z,2.80
2023-03-28T19:50:43.109Z,2.70
2023-03-28T19:56:12.118Z,2.60
2023-03-28T20:01:40.232Z,2.50
2023-03-28T20:07:08.473Z,2.40
2023-03-28T20:12:40.016Z,2.30
2023-03-28T20:18:14.537Z,2.30
2023-03-28T20:23:42.996Z,2.20
2023-03-28T20:29:14.004Z,2.30
2023-03-28T20:34:42.264Z,2.30
2023-03-28T20:40:11.795Z,2.20
2023-03-28T20:45:39.765Z,2.20
2023-03-28T20:51:14.699Z,2.20
2023-03-28T20:56:43.066Z,2.30
2023-03-28T21:02:12.562Z,2.30
2023-03-28T21:07:41.325Z,2.20
2023-03-28T21:13:09.180Z,2.30
2023-03-28T21:18:37.716Z,2.30
2023-03-28T21:24:07.395Z,2.20
2023-03-28T21:29:35.279Z,2.20
2023-03-28T21:35:05.430Z,2.20
2023-03-28T21:40:33.678Z,2.20
2023-03-28T21:46:02.371Z,2.20
2023-03-28T21:51:31.735Z,2.20
2023-03-28T21:56:59.846Z,2.20
2023-03-28T22:02:28.093Z,2.20
2023-03-28T22:07:56.011Z,2.30
2023-03-28T22:13:24.658Z,2.30
2023-03-28T22:18:55.136Z,2.30
2023-03-28T22:24:24.586Z,2.30
2023-03-28T22:29:52.829Z,2.30
2023-03-28T22:35:21.738Z,2.30
2023-03-28T22:40:50.095Z,2.30
2023-03-28T22:46:18.286Z,2.30
2023-03-28T22:51:46.577Z,2.30
2023-03-28T22:57:14.605Z,2.30
2023-03-28T23:02:42.678Z,2.70
2023-03-28T23:08:11.269Z,2.60
2023-03-28T23:13:39.050Z,2.60
2023-03-28T23:19:07.381Z,2.50
2023-03-28T23:24:37.049Z,2.60
2023-03-28T23:30:06.490Z,2.60
2023-03-28T23:35:34.277Z,2.60
2023-03-28T23:41:02.741Z,2.60
2023-03-28T23:46:31.045Z,2.60
2023-03-28T23:51:59.106Z,2.60
2023-03-28T23:57:28.718Z,2.60
